sensor_id;sensor_type;location;lat;lon;timestamp;P1;durP1;ratioP1;P2;durP2;ratioP2
37559;SDS011;23398;50.928;7.084;2022-12-08T00:01:38;9.85;;;7.97;;
37559;SDS011;23398;50.928;7.084;2022-12-08T00:04:04;10.52;;;7.90;;
37559;SDS011;23398;50.928;7.084;2022-12-08T00:06:32;9.43;;;7.57;;
37559;SDS011;23398;50.928;7.084;2022-12-08T00:09:20;9.02;;;6.97;;
37559;SDS011;23398;50.928;7.084;2022-12-08T00:11:49;10.68;;;7.88;;
37559;SDS011;23398;50.928;7.084;2022-12-08T00:14:21;10.52;;;8.25;;
37559;SDS011;23398;50.928;7.084;2022-12-08T00:16:48;8.25;;;7.13;;
37559;SDS011;23398;50.928;7.084;2022-12-08T00:19:14;9.82;;;7.70;;
37559;SDS011;23398;50.928;7.084;2022-12-08T00:21:39;9.43;;;7.40;;
37559;SDS011;23398;50.928;7.084;2022-12-08T00:24:05;10.38;;;7.22;;
37559;SDS011;23398;50.928;7.084;2022-12-08T00:26:31;9.73;;;7.57;;
37559;SDS011;23398;50.928;7.084;2022-12-08T00:28:56;10.85;;;7.80;;
37559;SDS011;23398;50.928;7.084;2022-12-08T00:31:22;10.55;;;7.70;;
37559;SDS011;23398;50.928;7.084;2022-12-08T00:33:48;10.65;;;7.25;;
37559;SDS011;23398;50.928;7.084;2022-12-08T00:36:13;8.68;;;7.38;;
37559;SDS011;23398;50.928;7.084;2022-12-08T00:38:39;8.82;;;7.53;;
37559;SDS011;23398;50.928;7.084;2022-12-08T00:41:12;9.38;;;7.05;;
37559;SDS011;23398;50.928;7.084;2022-12-08T00:43:39;9.55;;;7.65;;
37559;SDS011;23398;50.928;7.084;2022-12-08T00:46:05;10.32;;;7.38;;
37559;SDS011;23398;50.928;7.084;2022-12-08T00:48:30;8.85;;;7.50;;
37559;SDS011;23398;50.928;7.084;2022-12-08T00:50:56;9.35;;;7.10;;
37559;SDS011;23398;50.928;7.084;2022-12-08T00:53:21;10.05;;;7.45;;
37559;SDS011;23398;50.928;7.084;2022-12-08T00:55:47;10.35;;;7.95;;
37559;SDS011;23398;50.928;7.084;2022-12-08T00:58:12;11.02;;;7.90;;
37559;SDS011;23398;50.928;7.084;2022-12-08T01:00:42;9.85;;;6.93;;
37559;SDS011;23398;50.928;7.084;2022-12-08T01:03:11;13.10;;;7.75;;
37559;SDS011;23398;50.928;7.084;2022-12-08T01:05:37;10.70;;;8.02;;
37559;SDS011;23398;50.928;7.084;2022-12-08T01:08:06;10.55;;;7.85;;
37559;SDS011;23398;50.928;7.084;2022-12-08T01:10:35;9.60;;;8.00;;
37559;SDS011;23398;50.928;7.084;2022-12-08T01:13:02;11.20;;;7.47;;
37559;SDS011;23398;50.928;7.084;2022-12-08T01:15:28;11.90;;;7.78;;
37559;SDS011;23398;50.928;7.084;2022-12-08T01:17:54;11.02;;;8.05;;
37559;SDS011;23398;50.928;7.084;2022-12-08T01:20:19;10.05;;;7.55;;
37559;SDS011;23398;50.928;7.084;2022-12-08T01:22:45;9.27;;;7.28;;
37559;SDS011;23398;50.928;7.084;2022-12-08T01:25:10;10.60;;;7.65;;
37559;SDS011;23398;50.928;7.084;2022-12-08T01:27:36;10.07;;;7.85;;
37559;SDS011;23398;50.928;7.084;2022-12-08T01:30:02;10.05;;;7.57;;
37559;SDS011;23398;50.928;7.084;2022-12-08T01:32:27;9.35;;;7.95;;
37559;SDS011;23398;50.928;7.084;2022-12-08T01:34:53;10.00;;;7.80;;
37559;SDS011;23398;50.928;7.084;2022-12-08T01:37:19;13.10;;;8.52;;
37559;SDS011;23398;50.928;7.084;2022-12-08T01:39:44;10.57;;;7.65;;
37559;SDS011;23398;50.928;7.084;2022-12-08T01:42:19;10.60;;;7.57;;
37559;SDS011;23398;50.928;7.084;2022-12-08T01:44:51;10.00;;;7.72;;
37559;SDS011;23398;50.928;7.084;2022-12-08T01:47:22;12.45;;;8.15;;
37559;SDS011;23398;50.928;7.084;2022-12-08T01:49:51;9.73;;;7.85;;
37559;SDS011;23398;50.928;7.084;2022-12-08T01:52:28;10.43;;;8.00;;
37559;SDS011;23398;50.928;7.084;2022-12-08T01:55:05;10.80;;;7.53;;
37559;SDS011;23398;50.928;7.084;2022-12-08T01:57:55;11.55;;;8.38;;
37559;SDS011;23398;50.928;7.084;2022-12-08T02:00:29;9.85;;;7.53;;
37559;SDS011;23398;50.928;7.084;2022-12-08T02:03:02;10.63;;;7.95;;
37559;SDS011;23398;50.928;7.084;2022-12-08T02:05:31;9.80;;;7.72;;
37559;SDS011;23398;50.928;7.084;2022-12-08T02:07:59;11.07;;;7.53;;
37559;SDS011;23398;50.928;7.084;2022-12-08T02:10:29;12.35;;;7.70;;
37559;SDS011;23398;50.928;7.084;2022-12-08T02:12:57;8.40;;;7.15;;
37559;SDS011;23398;50.928;7.084;2022-12-08T02:15:29;9.55;;;7.03;;
37559;SDS011;23398;50.928;7.084;2022-12-08T02:18:18;8.45;;;6.93;;
37559;SDS011;23398;50.928;7.084;2022-12-08T02:21:03;10.00;;;6.93;;
37559;SDS011;23398;50.928;7.084;2022-12-08T02:23:40;8.77;;;6.78;;
37559;SDS011;23398;50.928;7.084;2022-12-08T02:26:22;9.70;;;7.18;;
37559;SDS011;23398;50.928;7.084;2022-12-08T02:29:14;8.35;;;6.53;;
37559;SDS011;23398;50.928;7.084;2022-12-08T02:37:38;7.45;;;5.75;;
37559;SDS011;23398;50.928;7.084;2022-12-08T02:43:02;7.30;;;5.75;;
37559;SDS011;23398;50.928;7.084;2022-12-08T02:45:35;6.65;;;5.55;;
37559;SDS011;23398;50.928;7.084;2022-12-08T02:48:05;6.10;;;5.50;;
37559;SDS011;23398;50.928;7.084;2022-12-08T02:50:33;6.88;;;5.30;;
37559;SDS011;23398;50.928;7.084;2022-12-08T02:52:58;6.85;;;5.85;;
37559;SDS011;23398;50.928;7.084;2022-12-08T02:55:27;7.80;;;5.43;;
37559;SDS011;23398;50.928;7.084;2022-12-08T03:00:38;8.05;;;5.45;;
37559;SDS011;23398;50.928;7.084;2022-12-08T03:03:24;8.02;;;5.60;;
37559;SDS011;23398;50.928;7.084;2022-12-08T03:06:21;7.57;;;5.55;;
37559;SDS011;23398;50.928;7.084;2022-12-08T03:09:02;7.75;;;6.53;;
37559;SDS011;23398;50.928;7.084;2022-12-08T03:11:44;10.30;;;6.60;;
37559;SDS011;23398;50.928;7.084;2022-12-08T03:14:15;9.05;;;6.40;;
37559;SDS011;23398;50.928;7.084;2022-12-08T03:16:42;9.35;;;6.47;;
37559;SDS011;23398;50.928;7.084;2022-12-08T03:19:14;8.48;;;6.65;;
37559;SDS011;23398;50.928;7.084;2022-12-08T03:21:44;7.45;;;6.07;;
37559;SDS011;23398;50.928;7.084;2022-12-08T03:24:14;7.63;;;6.30;;
37559;SDS011;23398;50.928;7.084;2022-12-08T03:26:45;8.43;;;6.22;;
37559;SDS011;23398;50.928;7.084;2022-12-08T03:29:15;7.50;;;6.05;;
37559;SDS011;23398;50.928;7.084;2022-12-08T03:31:44;7.85;;;6.18;;
37559;SDS011;23398;50.928;7.084;2022-12-08T03:34:17;9.13;;;6.05;;
37559;SDS011;23398;50.928;7.084;2022-12-08T03:36:45;10.00;;;6.07;;
37559;SDS011;23398;50.928;7.084;2022-12-08T03:39:11;12.95;;;8.18;;
37559;SDS011;23398;50.928;7.084;2022-12-08T03:41:37;9.10;;;6.47;;
37559;SDS011;23398;50.928;7.084;2022-12-08T03:44:02;6.70;;;5.50;;
37559;SDS011;23398;50.928;7.084;2022-12-08T03:46:29;7.68;;;5.78;;
37559;SDS011;23398;50.928;7.084;2022-12-08T03:48:55;7.38;;;5.30;;
37559;SDS011;23398;50.928;7.084;2022-12-08T03:51:21;7.47;;;5.93;;
37559;SDS011;23398;50.928;7.084;2022-12-08T03:53:47;7.95;;;5.35;;
37559;SDS011;23398;50.928;7.084;2022-12-08T03:56:29;6.63;;;5.05;;
37559;SDS011;23398;50.928;7.084;2022-12-08T03:58:56;7.05;;;5.13;;
37559;SDS011;23398;50.928;7.084;2022-12-08T04:01:22;5.68;;;5.03;;
37559;SDS011;23398;50.928;7.084;2022-12-08T04:03:48;6.60;;;5.47;;
37559;SDS011;23398;50.928;7.084;2022-12-08T04:06:14;8.57;;;4.90;;
37559;SDS011;23398;50.928;7.084;2022-12-08T04:08:40;5.47;;;4.70;;
37559;SDS011;23398;50.928;7.084;2022-12-08T04:11:06;6.57;;;4.93;;
37559;SDS011;23398;50.928;7.084;2022-12-08T04:13:33;5.57;;;4.75;;
37559;SDS011;23398;50.928;7.084;2022-12-08T04:15:59;5.90;;;4.93;;
37559;SDS011;23398;50.928;7.084;2022-12-08T04:18:25;6.20;;;4.72;;
37559;SDS011;23398;50.928;7.084;2022-12-08T04:20:50;5.35;;;4.57;;
37559;SDS011;23398;50.928;7.084;2022-12-08T04:23:16;7.50;;;5.45;;
37559;SDS011;23398;50.928;7.084;2022-12-08T04:25:42;7.15;;;4.90;;
37559;SDS011;23398;50.928;7.084;2022-12-08T04:28:07;5.32;;;4.50;;
37559;SDS011;23398;50.928;7.084;2022-12-08T04:30:33;8.68;;;4.75;;
37559;SDS011;23398;50.928;7.084;2022-12-08T04:32:59;7.45;;;5.13;;
37559;SDS011;23398;50.928;7.084;2022-12-08T04:35:24;6.03;;;4.82;;
37559;SDS011;23398;50.928;7.084;2022-12-08T04:37:50;10.02;;;5.03;;
37559;SDS011;23398;50.928;7.084;2022-12-08T04:40:15;5.53;;;4.70;;
37559;SDS011;23398;50.928;7.084;2022-12-08T04:42:41;7.55;;;5.28;;
37559;SDS011;23398;50.928;7.084;2022-12-08T04:45:07;5.55;;;4.80;;
37559;SDS011;23398;50.928;7.084;2022-12-08T04:47:33;7.20;;;4.85;;
37559;SDS011;23398;50.928;7.084;2022-12-08T04:49:58;7.00;;;4.95;;
37559;SDS011;23398;50.928;7.084;2022-12-08T04:52:24;6.18;;;4.88;;
37559;SDS011;23398;50.928;7.084;2022-12-08T04:54:49;6.30;;;5.13;;
37559;SDS011;23398;50.928;7.084;2022-12-08T04:57:15;6.10;;;4.60;;
37559;SDS011;23398;50.928;7.084;2022-12-08T04:59:40;7.20;;;5.13;;
37559;SDS011;23398;50.928;7.084;2022-12-08T05:02:06;5.30;;;4.50;;
37559;SDS011;23398;50.928;7.084;2022-12-08T05:04:32;5.63;;;4.88;;
37559;SDS011;23398;50.928;7.084;2022-12-08T05:06:57;8.25;;;5.78;;
37559;SDS011;23398;50.928;7.084;2022-12-08T05:09:23;7.25;;;5.20;;
37559;SDS011;23398;50.928;7.084;2022-12-08T05:11:48;5.70;;;4.82;;
37559;SDS011;23398;50.928;7.084;2022-12-08T05:14:14;7.22;;;5.78;;
37559;SDS011;23398;50.928;7.084;2022-12-08T05:16:41;7.97;;;5.88;;
37559;SDS011;23398;50.928;7.084;2022-12-08T05:19:08;7.65;;;5.88;;
37559;SDS011;23398;50.928;7.084;2022-12-08T05:21:33;8.27;;;5.85;;
37559;SDS011;23398;50.928;7.084;2022-12-08T05:23:59;6.43;;;5.60;;
37559;SDS011;23398;50.928;7.084;2022-12-08T05:26:25;7.68;;;5.65;;
37559;SDS011;23398;50.928;7.084;2022-12-08T05:28:50;6.90;;;5.60;;
37559;SDS011;23398;50.928;7.084;2022-12-08T05:31:16;9.27;;;6.40;;
37559;SDS011;23398;50.928;7.084;2022-12-08T05:33:43;8.07;;;6.20;;
37559;SDS011;23398;50.928;7.084;2022-12-08T05:36:10;8.20;;;6.05;;
37559;SDS011;23398;50.928;7.084;2022-12-08T05:38:37;8.27;;;6.38;;
37559;SDS011;23398;50.928;7.084;2022-12-08T05:41:06;8.18;;;6.18;;
37559;SDS011;23398;50.928;7.084;2022-12-08T05:43:33;8.35;;;6.40;;
37559;SDS011;23398;50.928;7.084;2022-12-08T05:45:58;9.27;;;6.55;;
37559;SDS011;23398;50.928;7.084;2022-12-08T05:48:24;10.00;;;7.68;;
37559;SDS011;23398;50.928;7.084;2022-12-08T05:50:50;8.65;;;6.68;;
37559;SDS011;23398;50.928;7.084;2022-12-08T05:53:16;8.98;;;7.10;;
37559;SDS011;23398;50.928;7.084;2022-12-08T05:55:43;8.90;;;7.18;;
37559;SDS011;23398;50.928;7.084;2022-12-08T05:58:11;11.75;;;6.95;;
37559;SDS011;23398;50.928;7.084;2022-12-08T06:00:38;8.95;;;7.00;;
37559;SDS011;23398;50.928;7.084;2022-12-08T06:03:04;11.23;;;7.00;;
37559;SDS011;23398;50.928;7.084;2022-12-08T06:05:31;11.20;;;7.80;;
37559;SDS011;23398;50.928;7.084;2022-12-08T06:07:59;11.38;;;7.35;;
37559;SDS011;23398;50.928;7.084;2022-12-08T06:10:25;11.05;;;7.97;;
37559;SDS011;23398;50.928;7.084;2022-12-08T06:12:51;10.20;;;7.72;;
37559;SDS011;23398;50.928;7.084;2022-12-08T06:15:16;11.05;;;7.82;;
37559;SDS011;23398;50.928;7.084;2022-12-08T06:17:42;10.45;;;7.88;;
37559;SDS011;23398;50.928;7.084;2022-12-08T06:20:08;11.68;;;7.60;;
37559;SDS011;23398;50.928;7.084;2022-12-08T06:22:34;12.77;;;8.50;;
37559;SDS011;23398;50.928;7.084;2022-12-08T06:25:00;12.48;;;8.50;;
37559;SDS011;23398;50.928;7.084;2022-12-08T06:27:25;11.23;;;7.32;;
37559;SDS011;23398;50.928;7.084;2022-12-08T06:29:51;11.45;;;7.65;;
37559;SDS011;23398;50.928;7.084;2022-12-08T06:32:17;13.95;;;8.50;;
37559;SDS011;23398;50.928;7.084;2022-12-08T06:34:42;11.88;;;8.88;;
37559;SDS011;23398;50.928;7.084;2022-12-08T06:37:08;12.88;;;8.07;;
37559;SDS011;23398;50.928;7.084;2022-12-08T06:39:33;12.35;;;7.78;;
37559;SDS011;23398;50.928;7.084;2022-12-08T06:41:59;9.70;;;7.35;;
37559;SDS011;23398;50.928;7.084;2022-12-08T06:44:43;11.02;;;7.28;;
37559;SDS011;23398;50.928;7.084;2022-12-08T06:47:09;11.20;;;7.25;;
37559;SDS011;23398;50.928;7.084;2022-12-08T06:49:34;10.95;;;7.32;;
37559;SDS011;23398;50.928;7.084;2022-12-08T06:52:00;10.57;;;7.70;;
37559;SDS011;23398;50.928;7.084;2022-12-08T06:54:25;10.25;;;7.25;;
37559;SDS011;23398;50.928;7.084;2022-12-08T06:56:51;10.57;;;7.47;;
37559;SDS011;23398;50.928;7.084;2022-12-08T06:59:17;10.00;;;7.28;;
37559;SDS011;23398;50.928;7.084;2022-12-08T07:01:43;10.70;;;7.57;;
37559;SDS011;23398;50.928;7.084;2022-12-08T07:04:09;11.35;;;7.38;;
37559;SDS011;23398;50.928;7.084;2022-12-08T07:06:35;9.63;;;6.80;;
37559;SDS011;23398;50.928;7.084;2022-12-08T07:09:00;11.52;;;7.85;;
37559;SDS011;23398;50.928;7.084;2022-12-08T07:11:26;11.38;;;7.22;;
37559;SDS011;23398;50.928;7.084;2022-12-08T07:13:54;12.25;;;8.20;;
37559;SDS011;23398;50.928;7.084;2022-12-08T07:16:20;13.15;;;8.35;;
37559;SDS011;23398;50.928;7.084;2022-12-08T07:18:46;10.07;;;7.50;;
37559;SDS011;23398;50.928;7.084;2022-12-08T07:21:12;10.13;;;7.28;;
37559;SDS011;23398;50.928;7.084;2022-12-08T07:23:41;12.30;;;7.40;;
37559;SDS011;23398;50.928;7.084;2022-12-08T07:26:10;12.57;;;7.18;;
37559;SDS011;23398;50.928;7.084;2022-12-08T07:28:37;14.10;;;7.75;;
37559;SDS011;23398;50.928;7.084;2022-12-08T07:31:04;11.45;;;8.05;;
37559;SDS011;23398;50.928;7.084;2022-12-08T07:33:31;11.55;;;7.50;;
37559;SDS011;23398;50.928;7.084;2022-12-08T07:35:59;11.45;;;7.20;;
37559;SDS011;23398;50.928;7.084;2022-12-08T07:38:26;11.57;;;7.45;;
37559;SDS011;23398;50.928;7.084;2022-12-08T07:40:52;9.48;;;7.35;;
37559;SDS011;23398;50.928;7.084;2022-12-08T07:43:18;11.05;;;7.00;;
37559;SDS011;23398;50.928;7.084;2022-12-08T07:45:44;11.80;;;7.05;;
37559;SDS011;23398;50.928;7.084;2022-12-08T07:48:10;10.20;;;7.28;;
37559;SDS011;23398;50.928;7.084;2022-12-08T07:50:36;8.80;;;7.10;;
37559;SDS011;23398;50.928;7.084;2022-12-08T07:53:02;12.48;;;6.88;;
37559;SDS011;23398;50.928;7.084;2022-12-08T07:55:27;8.60;;;6.60;;
37559;SDS011;23398;50.928;7.084;2022-12-08T07:57:53;10.15;;;6.10;;
37559;SDS011;23398;50.928;7.084;2022-12-08T08:00:18;9.70;;;6.53;;
37559;SDS011;23398;50.928;7.084;2022-12-08T08:02:44;8.30;;;5.90;;
37559;SDS011;23398;50.928;7.084;2022-12-08T08:05:10;7.97;;;6.10;;
37559;SDS011;23398;50.928;7.084;2022-12-08T08:07:36;10.55;;;6.78;;
37559;SDS011;23398;50.928;7.084;2022-12-08T08:10:02;8.38;;;6.10;;
37559;SDS011;23398;50.928;7.084;2022-12-08T08:12:29;8.05;;;5.88;;
37559;SDS011;23398;50.928;7.084;2022-12-08T08:14:54;9.63;;;6.47;;
37559;SDS011;23398;50.928;7.084;2022-12-08T08:17:20;9.13;;;6.05;;
37559;SDS011;23398;50.928;7.084;2022-12-08T08:19:45;8.60;;;5.55;;
37559;SDS011;23398;50.928;7.084;2022-12-08T08:22:11;9.32;;;6.22;;
37559;SDS011;23398;50.928;7.084;2022-12-08T08:24:37;9.40;;;5.85;;
37559;SDS011;23398;50.928;7.084;2022-12-08T08:27:03;8.43;;;6.30;;
37559;SDS011;23398;50.928;7.084;2022-12-08T08:29:29;7.72;;;6.15;;
37559;SDS011;23398;50.928;7.084;2022-12-08T08:31:54;9.80;;;6.78;;
37559;SDS011;23398;50.928;7.084;2022-12-08T08:34:20;10.35;;;6.40;;
37559;SDS011;23398;50.928;7.084;2022-12-08T08:36:45;8.55;;;5.97;;
37559;SDS011;23398;50.928;7.084;2022-12-08T08:39:11;10.02;;;6.55;;
37559;SDS011;23398;50.928;7.084;2022-12-08T08:41:37;7.85;;;6.28;;
37559;SDS011;23398;50.928;7.084;2022-12-08T08:44:03;10.40;;;6.20;;
37559;SDS011;23398;50.928;7.084;2022-12-08T08:46:29;9.88;;;6.47;;
37559;SDS011;23398;50.928;7.084;2022-12-08T08:48:55;11.73;;;6.97;;
37559;SDS011;23398;50.928;7.084;2022-12-08T08:51:21;9.35;;;7.03;;
37559;SDS011;23398;50.928;7.084;2022-12-08T08:53:47;9.10;;;6.43;;
37559;SDS011;23398;50.928;7.084;2022-12-08T08:56:13;8.80;;;6.90;;
37559;SDS011;23398;50.928;7.084;2022-12-08T08:58:40;8.35;;;6.45;;
37559;SDS011;23398;50.928;7.084;2022-12-08T09:01:06;9.10;;;6.70;;
37559;SDS011;23398;50.928;7.084;2022-12-08T09:03:32;9.25;;;6.88;;
37559;SDS011;23398;50.928;7.084;2022-12-08T09:05:58;8.35;;;6.47;;
37559;SDS011;23398;50.928;7.084;2022-12-08T09:08:23;9.00;;;6.55;;
37559;SDS011;23398;50.928;7.084;2022-12-08T09:10:49;7.75;;;6.43;;
37559;SDS011;23398;50.928;7.084;2022-12-08T09:13:14;9.88;;;6.53;;
37559;SDS011;23398;50.928;7.084;2022-12-08T09:15:40;7.65;;;5.78;;
37559;SDS011;23398;50.928;7.084;2022-12-08T09:18:06;8.07;;;6.32;;
37559;SDS011;23398;50.928;7.084;2022-12-08T09:20:32;8.75;;;6.35;;
37559;SDS011;23398;50.928;7.084;2022-12-08T09:22:58;10.13;;;6.00;;
37559;SDS011;23398;50.928;7.084;2022-12-08T09:25:24;10.18;;;6.22;;
37559;SDS011;23398;50.928;7.084;2022-12-08T09:27:49;8.10;;;5.57;;
37559;SDS011;23398;50.928;7.084;2022-12-08T09:30:15;7.28;;;5.03;;
37559;SDS011;23398;50.928;7.084;2022-12-08T09:32:40;9.30;;;5.15;;
37559;SDS011;23398;50.928;7.084;2022-12-08T09:35:06;6.68;;;5.10;;
37559;SDS011;23398;50.928;7.084;2022-12-08T09:37:32;8.57;;;4.88;;
37559;SDS011;23398;50.928;7.084;2022-12-08T09:39:57;4.95;;;4.45;;
37559;SDS011;23398;50.928;7.084;2022-12-08T09:42:48;5.97;;;4.95;;
37559;SDS011;23398;50.928;7.084;2022-12-08T09:45:20;7.38;;;4.70;;
37559;SDS011;23398;50.928;7.084;2022-12-08T09:47:58;8.25;;;4.88;;
37559;SDS011;23398;50.928;7.084;2022-12-08T09:50:38;6.68;;;5.15;;
37559;SDS011;23398;50.928;7.084;2022-12-08T09:55:50;7.60;;;4.75;;
37559;SDS011;23398;50.928;7.084;2022-12-08T10:01:26;4.47;;;3.67;;
37559;SDS011;23398;50.928;7.084;2022-12-08T10:03:57;7.55;;;4.30;;
37559;SDS011;23398;50.928;7.084;2022-12-08T10:09:11;4.97;;;3.45;;
37559;SDS011;23398;50.928;7.084;2022-12-08T10:11:50;5.28;;;3.50;;
37559;SDS011;23398;50.928;7.084;2022-12-08T10:14:20;4.70;;;3.50;;
37559;SDS011;23398;50.928;7.084;2022-12-08T10:17:34;4.70;;;3.45;;
37559;SDS011;23398;50.928;7.084;2022-12-08T10:20:10;4.30;;;3.25;;
37559;SDS011;23398;50.928;7.084;2022-12-08T10:22:41;4.93;;;2.95;;
37559;SDS011;23398;50.928;7.084;2022-12-08T10:25:17;3.25;;;2.83;;
37559;SDS011;23398;50.928;7.084;2022-12-08T10:27:47;5.20;;;3.10;;
37559;SDS011;23398;50.928;7.084;2022-12-08T10:30:15;4.47;;;3.08;;
37559;SDS011;23398;50.928;7.084;2022-12-08T10:32:47;4.35;;;3.10;;
37559;SDS011;23398;50.928;7.084;2022-12-08T10:35:15;4.28;;;3.13;;
37559;SDS011;23398;50.928;7.084;2022-12-08T10:37:53;3.28;;;2.80;;
37559;SDS011;23398;50.928;7.084;2022-12-08T10:40:25;2.97;;;2.42;;
37559;SDS011;23398;50.928;7.084;2022-12-08T10:42:53;3.15;;;2.70;;
37559;SDS011;23398;50.928;7.084;2022-12-08T10:48:03;3.70;;;2.65;;
37559;SDS011;23398;50.928;7.084;2022-12-08T10:50:47;3.53;;;2.60;;
37559;SDS011;23398;50.928;7.084;2022-12-08T10:53:20;3.65;;;2.80;;
37559;SDS011;23398;50.928;7.084;2022-12-08T10:55:48;4.25;;;3.13;;
37559;SDS011;23398;50.928;7.084;2022-12-08T11:03:32;4.80;;;3.78;;
37559;SDS011;23398;50.928;7.084;2022-12-08T11:06:01;4.53;;;4.05;;
37559;SDS011;23398;50.928;7.084;2022-12-08T11:08:43;5.43;;;4.20;;
37559;SDS011;23398;50.928;7.084;2022-12-08T11:11:15;5.50;;;4.45;;
37559;SDS011;23398;50.928;7.084;2022-12-08T11:13:41;6.50;;;4.95;;
37559;SDS011;23398;50.928;7.084;2022-12-08T11:16:07;7.25;;;4.57;;
37559;SDS011;23398;50.928;7.084;2022-12-08T11:18:43;7.00;;;5.00;;
37559;SDS011;23398;50.928;7.084;2022-12-08T11:21:16;6.13;;;5.00;;
37559;SDS011;23398;50.928;7.084;2022-12-08T11:23:47;7.32;;;4.70;;
37559;SDS011;23398;50.928;7.084;2022-12-08T11:26:25;5.63;;;4.40;;
37559;SDS011;23398;50.928;7.084;2022-12-08T11:28:55;6.10;;;3.90;;
37559;SDS011;23398;50.928;7.084;2022-12-08T11:31:43;4.47;;;3.38;;
37559;SDS011;23398;50.928;7.084;2022-12-08T11:34:25;4.78;;;3.25;;
37559;SDS011;23398;50.928;7.084;2022-12-08T11:36:58;5.03;;;3.15;;
37559;SDS011;23398;50.928;7.084;2022-12-08T11:39:25;3.85;;;2.60;;
37559;SDS011;23398;50.928;7.084;2022-12-08T11:41:53;2.67;;;1.95;;
37559;SDS011;23398;50.928;7.084;2022-12-08T11:44:27;3.60;;;2.17;;
37559;SDS011;23398;50.928;7.084;2022-12-08T11:49:57;2.33;;;1.65;;
37559;SDS011;23398;50.928;7.084;2022-12-08T11:52:38;2.78;;;1.75;;
37559;SDS011;23398;50.928;7.084;2022-12-08T11:55:17;2.63;;;1.50;;
37559;SDS011;23398;50.928;7.084;2022-12-08T11:57:49;2.10;;;1.30;;
37559;SDS011;23398;50.928;7.084;2022-12-08T12:00:15;1.45;;;1.30;;
37559;SDS011;23398;50.928;7.084;2022-12-08T12:02:43;2.70;;;1.75;;
37559;SDS011;23398;50.928;7.084;2022-12-08T12:05:27;4.65;;;2.00;;
37559;SDS011;23398;50.928;7.084;2022-12-08T12:11:09;2.28;;;1.20;;
37559;SDS011;23398;50.928;7.084;2022-12-08T12:14:01;2.53;;;1.13;;
37559;SDS011;23398;50.928;7.084;2022-12-08T12:16:56;1.58;;;1.05;;
37559;SDS011;23398;50.928;7.084;2022-12-08T12:19:35;1.90;;;1.35;;
37559;SDS011;23398;50.928;7.084;2022-12-08T12:22:36;2.10;;;1.30;;
37559;SDS011;23398;50.928;7.084;2022-12-08T12:24:58;3.33;;;1.58;;
37559;SDS011;23398;50.928;7.084;2022-12-08T12:27:27;4.07;;;2.42;;
37559;SDS011;23398;50.928;7.084;2022-12-08T12:30:00;4.53;;;2.60;;
37559;SDS011;23398;50.928;7.084;2022-12-08T12:37:59;9.82;;;3.50;;
37559;SDS011;23398;50.928;7.084;2022-12-08T12:40:50;7.72;;;3.15;;
37559;SDS011;23398;50.928;7.084;2022-12-08T12:43:27;5.32;;;3.63;;
37559;SDS011;23398;50.928;7.084;2022-12-08T12:48:48;5.97;;;4.28;;
37559;SDS011;23398;50.928;7.084;2022-12-08T12:51:34;8.38;;;4.60;;
37559;SDS011;23398;50.928;7.084;2022-12-08T12:54:22;10.38;;;5.28;;
37559;SDS011;23398;50.928;7.084;2022-12-08T12:56:53;9.23;;;4.95;;
37559;SDS011;23398;50.928;7.084;2022-12-08T12:59:31;5.45;;;4.68;;
37559;SDS011;23398;50.928;7.084;2022-12-08T13:05:01;7.70;;;4.60;;
37559;SDS011;23398;50.928;7.084;2022-12-08T13:07:34;6.70;;;4.70;;
37559;SDS011;23398;50.928;7.084;2022-12-08T13:10:18;7.10;;;4.68;;
37559;SDS011;23398;50.928;7.084;2022-12-08T13:13:01;6.80;;;4.50;;
37559;SDS011;23398;50.928;7.084;2022-12-08T13:15:39;6.40;;;4.43;;
37559;SDS011;23398;50.928;7.084;2022-12-08T13:18:19;7.68;;;4.93;;
37559;SDS011;23398;50.928;7.084;2022-12-08T13:34:13;8.15;;;4.55;;
37559;SDS011;23398;50.928;7.084;2022-12-08T13:36:42;5.28;;;4.25;;
37559;SDS011;23398;50.928;7.084;2022-12-08T13:39:20;5.95;;;4.47;;
37559;SDS011;23398;50.928;7.084;2022-12-08T13:42:35;7.55;;;4.57;;
37559;SDS011;23398;50.928;7.084;2022-12-08T13:44:48;7.57;;;3.95;;
37559;SDS011;23398;50.928;7.084;2022-12-08T13:47:29;6.40;;;4.13;;
37559;SDS011;23398;50.928;7.084;2022-12-08T13:49:59;6.03;;;4.55;;
37559;SDS011;23398;50.928;7.084;2022-12-08T13:53:10;5.85;;;4.10;;
37559;SDS011;23398;50.928;7.084;2022-12-08T13:55:47;7.30;;;4.85;;
37559;SDS011;23398;50.928;7.084;2022-12-08T13:58:21;5.43;;;3.75;;
37559;SDS011;23398;50.928;7.084;2022-12-08T14:00:58;6.35;;;4.50;;
37559;SDS011;23398;50.928;7.084;2022-12-08T14:03:25;9.10;;;4.55;;
37559;SDS011;23398;50.928;7.084;2022-12-08T14:05:51;10.23;;;4.85;;
37559;SDS011;23398;50.928;7.084;2022-12-08T14:08:22;9.57;;;5.68;;
37559;SDS011;23398;50.928;7.084;2022-12-08T14:10:57;8.20;;;4.88;;
37559;SDS011;23398;50.928;7.084;2022-12-08T14:13:31;6.53;;;4.57;;
37559;SDS011;23398;50.928;7.084;2022-12-08T14:15:57;7.65;;;4.32;;
37559;SDS011;23398;50.928;7.084;2022-12-08T14:18:24;6.32;;;4.45;;
37559;SDS011;23398;50.928;7.084;2022-12-08T14:21:03;6.97;;;4.40;;
37559;SDS011;23398;50.928;7.084;2022-12-08T14:23:33;7.28;;;4.10;;
37559;SDS011;23398;50.928;7.084;2022-12-08T14:26:00;7.30;;;4.22;;
37559;SDS011;23398;50.928;7.084;2022-12-08T14:28:27;6.72;;;4.43;;
37559;SDS011;23398;50.928;7.084;2022-12-08T14:30:53;6.38;;;4.20;;
37559;SDS011;23398;50.928;7.084;2022-12-08T14:33:19;6.90;;;4.32;;
37559;SDS011;23398;50.928;7.084;2022-12-08T14:35:51;5.93;;;4.05;;
37559;SDS011;23398;50.928;7.084;2022-12-08T14:38:20;7.53;;;4.20;;
37559;SDS011;23398;50.928;7.084;2022-12-08T14:41:05;6.50;;;3.95;;
37559;SDS011;23398;50.928;7.084;2022-12-08T14:43:34;7.03;;;3.97;;
37559;SDS011;23398;50.928;7.084;2022-12-08T14:46:01;7.60;;;4.45;;
37559;SDS011;23398;50.928;7.084;2022-12-08T14:53:57;7.85;;;4.78;;
37559;SDS011;23398;50.928;7.084;2022-12-08T14:59:08;5.22;;;3.53;;
37559;SDS011;23398;50.928;7.084;2022-12-08T15:01:39;4.80;;;3.20;;
37559;SDS011;23398;50.928;7.084;2022-12-08T15:04:13;4.90;;;2.80;;
37559;SDS011;23398;50.928;7.084;2022-12-08T15:09:37;5.20;;;2.88;;
37559;SDS011;23398;50.928;7.084;2022-12-08T15:14:42;4.05;;;3.20;;
37559;SDS011;23398;50.928;7.084;2022-12-08T15:17:56;4.30;;;3.03;;
37559;SDS011;23398;50.928;7.084;2022-12-08T15:20:29;5.88;;;3.22;;
37559;SDS011;23398;50.928;7.084;2022-12-08T15:25:48;5.97;;;2.80;;
37559;SDS011;23398;50.928;7.084;2022-12-08T15:28:14;5.90;;;3.00;;
37559;SDS011;23398;50.928;7.084;2022-12-08T15:30:42;6.25;;;2.92;;
37559;SDS011;23398;50.928;7.084;2022-12-08T15:33:08;4.18;;;2.97;;
37559;SDS011;23398;50.928;7.084;2022-12-08T15:35:33;3.83;;;2.88;;
37559;SDS011;23398;50.928;7.084;2022-12-08T15:37:59;5.03;;;2.72;;
37559;SDS011;23398;50.928;7.084;2022-12-08T15:40:24;4.75;;;2.78;;
37559;SDS011;23398;50.928;7.084;2022-12-08T15:42:51;4.32;;;3.00;;
37559;SDS011;23398;50.928;7.084;2022-12-08T15:45:17;4.30;;;2.80;;
37559;SDS011;23398;50.928;7.084;2022-12-08T15:47:46;5.45;;;2.88;;
37559;SDS011;23398;50.928;7.084;2022-12-08T15:50:16;4.28;;;2.53;;
37559;SDS011;23398;50.928;7.084;2022-12-08T15:52:43;4.68;;;2.90;;
37559;SDS011;23398;50.928;7.084;2022-12-08T15:55:12;3.90;;;2.65;;
37559;SDS011;23398;50.928;7.084;2022-12-08T15:57:39;3.67;;;2.80;;
37559;SDS011;23398;50.928;7.084;2022-12-08T16:00:14;4.80;;;3.10;;
37559;SDS011;23398;50.928;7.084;2022-12-08T16:02:51;5.47;;;3.22;;
37559;SDS011;23398;50.928;7.084;2022-12-08T16:05:17;7.07;;;3.20;;
37559;SDS011;23398;50.928;7.084;2022-12-08T16:07:43;5.30;;;3.25;;
37559;SDS011;23398;50.928;7.084;2022-12-08T16:10:10;5.57;;;3.35;;
37559;SDS011;23398;50.928;7.084;2022-12-08T16:12:44;8.23;;;3.10;;
37559;SDS011;23398;50.928;7.084;2022-12-08T16:15:28;6.50;;;3.53;;